createdAt,value
2023-03-19T00:00:27.874Z,95856.44
2023-03-19T00:02:56.703Z,95852.56
2023-03-19T00:05:25.360Z,95856.50
2023-03-19T00:07:55.234Z,95860.38
2023-03-19T00:10:23.520Z,95864.88
2023-03-19T00:12:52.394Z,95862.63
2023-03-19T00:15:20.990Z,95861.88
2023-03-19T00:17:52.507Z,95855.19
2023-03-19T00:20:22.463Z,95854.28
2023-03-19T00:22:51.393Z,95858.47
2023-03-19T00:25:21.630Z,95854.09
2023-03-19T00:27:50.609Z,95846.34
2023-03-19T00:30:19.235Z,95843.81
2023-03-19T00:32:48.329Z,95846.41
2023-03-19T00:35:16.912Z,95843.06
2023-03-19T00:37:45.547Z,95838.88
2023-03-19T00:40:14.759Z,95840.53
2023-03-19T00:42:45.153Z,95846.59
2023-03-19T00:45:14.386Z,95841.59
2023-03-19T00:47:44.112Z,95840.88
2023-03-19T00:50:13.284Z,95839.25
2023-03-19T00:52:41.802Z,95840.13
2023-03-19T00:55:12.218Z,95831.84
2023-03-19T00:57:40.841Z,95839.59
2023-03-19T01:00:12.438Z,95830.44
2023-03-19T01:02:42.930Z,95825.56
2023-03-19T01:05:11.781Z,95832.59
2023-03-19T01:07:40.617Z,95818.19
2023-03-19T01:10:12.846Z,95825.88
2023-03-19T01:12:41.772Z,95824.81
2023-03-19T01:15:12.735Z,95821.38
2023-03-19T01:17:42.568Z,95822.19
2023-03-19T01:20:15.572Z,95819.66
2023-03-19T01:22:44.260Z,95816.31
2023-03-19T01:25:14.365Z,95819.84
2023-03-19T01:27:42.941Z,95823.44
2023-03-19T01:30:13.924Z,95825.41
2023-03-19T01:32:43.150Z,95830.03
2023-03-19T01:35:14.294Z,95825.94
2023-03-19T01:37:43.192Z,95826.00
2023-03-19T01:40:14.789Z,95833.44
2023-03-19T01:42:54.072Z,95829.19
2023-03-19T01:45:34.388Z,95835.09
2023-03-19T01:48:03.744Z,95826.56
2023-03-19T01:50:38.191Z,95827.72
2023-03-19T01:53:06.946Z,95840.28
2023-03-19T01:55:36.053Z,95843.28
2023-03-19T01:58:05.170Z,95846.09
2023-03-19T02:00:37.030Z,95834.75
2023-03-19T02:03:06.529Z,95831.22
2023-03-19T02:05:36.191Z,95827.41
2023-03-19T02:08:07.877Z,95827.63
2023-03-19T02:10:36.445Z,95826.81
2023-03-19T02:13:05.294Z,95826.75
2023-03-19T02:15:36.816Z,95825.75
2023-03-19T02:18:05.804Z,95823.88
2023-03-19T02:20:37.334Z,95822.75
2023-03-19T02:23:13.266Z,95816.53
2023-03-19T02:25:48.756Z,95818.63
2023-03-19T02:28:21.270Z,95830.06
2023-03-19T02:30:50.611Z,95840.84
2023-03-19T02:33:20.439Z,95838.16
2023-03-19T02:35:50.813Z,95830.13
2023-03-19T02:38:22.580Z,95830.78
2023-03-19T02:40:53.758Z,95832.66
2023-03-19T02:43:24.247Z,95834.38
2023-03-19T02:45:53.831Z,95826.97
2023-03-19T02:48:22.633Z,95838.88
2023-03-19T02:50:51.849Z,95848.84
2023-03-19T02:53:20.684Z,95847.03
2023-03-19T02:55:49.180Z,95847.97
2023-03-19T02:58:17.605Z,95851.91
2023-03-19T03:00:47.956Z,95850.81
2023-03-19T03:03:16.610Z,95860.63
2023-03-19T03:05:45.374Z,95866.84
2023-03-19T03:08:13.863Z,95871.25
2023-03-19T03:10:42.524Z,95868.06
2023-03-19T03:13:11.415Z,95872.38
2023-03-19T03:15:41.264Z,95875.81
2023-03-19T03:18:11.404Z,95873.09
2023-03-19T03:20:47.592Z,95873.84
2023-03-19T03:23:24.247Z,95875.66
2023-03-19T03:26:06.989Z,95879.38
2023-03-19T03:28:35.366Z,95876.28
2023-03-19T03:31:04.308Z,95874.56
2023-03-19T03:33:34.399Z,95872.22
2023-03-19T03:36:03.049Z,95878.03
2023-03-19T03:38:32.877Z,95874.56
2023-03-19T03:41:01.610Z,95874.97
2023-03-19T03:43:30.377Z,95875.78
2023-03-19T03:45:59.008Z,95873.19
2023-03-19T03:48:27.655Z,95877.44
2023-03-19T03:51:04.603Z,95866.31
2023-03-19T03:53:33.891Z,95862.75
2023-03-19T03:56:02.630Z,95861.91
2023-03-19T03:58:32.013Z,95858.56
2023-03-19T04:01:00.228Z,95872.22
2023-03-19T04:03:28.861Z,95871.22
2023-03-19T04:05:57.482Z,95870.44
2023-03-19T04:08:27.486Z,95872.88
2023-03-19T04:10:56.414Z,95873.75
2023-03-19T04:13:25.575Z,95872.72
2023-03-19T04:15:54.811Z,95872.53
2023-03-19T04:18:23.719Z,95876.63
2023-03-19T04:20:54.440Z,95872.31
2023-03-19T04:23:23.096Z,95867.97
2023-03-19T04:25:53.257Z,95875.50
2023-03-19T04:28:21.941Z,95869.63
2023-03-19T04:30:50.248Z,95871.25
2023-03-19T04:33:18.798Z,95871.16
2023-03-19T04:35:47.127Z,95874.69
2023-03-19T04:38:15.520Z,95870.09
2023-03-19T04:40:44.032Z,95875.03
2023-03-19T04:43:14.373Z,95873.81
2023-03-19T04:45:43.047Z,95873.47
2023-03-19T04:48:14.260Z,95867.09
2023-03-19T04:50:43.212Z,95866.34
2023-03-19T04:53:11.631Z,95864.72
2023-03-19T04:55:42.684Z,95863.81
2023-03-19T04:58:11.491Z,95868.88
2023-03-19T05:00:44.942Z,95866.25
2023-03-19T05:03:16.133Z,95866.34
2023-03-19T05:05:44.962Z,95875.59
2023-03-19T05:08:13.846Z,95879.66
2023-03-19T05:10:42.554Z,95885.38
2023-03-19T05:13:11.294Z,95890.34
2023-03-19T05:15:45.159Z,95886.13
2023-03-19T05:18:15.208Z,95892.81
2023-03-19T05:20:44.662Z,95891.84
2023-03-19T05:23:15.986Z,95885.22
2023-03-19T05:25:50.034Z,95884.25
2023-03-19T05:28:19.141Z,95884.84
2023-03-19T05:30:49.120Z,95882.13
2023-03-19T05:33:17.976Z,95885.59
2023-03-19T05:35:47.293Z,95885.41
2023-03-19T05:38:16.353Z,95883.53
2023-03-19T05:40:45.217Z,95886.66
2023-03-19T05:43:14.380Z,95887.56
2023-03-19T05:45:43.865Z,95890.66
2023-03-19T05:48:14.837Z,95886.19
2023-03-19T05:50:43.737Z,95883.41
2023-03-19T05:53:12.578Z,95886.59
2023-03-19T05:55:41.289Z,95880.41
2023-03-19T05:58:09.845Z,95882.38
2023-03-19T06:00:38.894Z,95872.38
2023-03-19T06:03:07.590Z,95869.19
2023-03-19T06:06:02.794Z,95878.56
2023-03-19T06:08:31.437Z,95872.84
2023-03-19T06:11:00.248Z,95870.34
2023-03-19T06:13:29.201Z,95881.28
2023-03-19T06:15:57.808Z,95882.78
2023-03-19T06:18:26.598Z,95887.97
2023-03-19T06:20:55.283Z,95894.56
2023-03-19T06:23:51.392Z,95900.41
2023-03-19T06:26:19.978Z,95902.97
2023-03-19T06:28:48.814Z,95908.75
2023-03-19T06:31:17.761Z,95919.94
2023-03-19T06:33:46.136Z,95918.31
2023-03-19T06:36:14.690Z,95916.75
2023-03-19T06:38:43.130Z,95914.31
2023-03-19T06:41:13.429Z,95925.66
2023-03-19T06:43:42.339Z,95913.81
2023-03-19T06:46:11.866Z,95911.91
2023-03-19T06:48:40.741Z,95917.72
2023-03-19T06:51:09.398Z,95919.28
2023-03-19T06:53:40.502Z,95923.44
2023-03-19T06:56:09.501Z,95931.34
2023-03-19T06:58:39.324Z,95931.88
2023-03-19T07:01:08.078Z,95935.84
2023-03-19T07:03:36.482Z,95943.56
2023-03-19T07:06:05.320Z,95945.66
2023-03-19T07:08:33.986Z,95940.44
2023-03-19T07:11:17.598Z,95942.38
2023-03-19T07:13:50.322Z,95945.59
2023-03-19T07:16:19.320Z,95947.34
2023-03-19T07:18:47.895Z,95950.53
2023-03-19T07:21:17.085Z,95960.44
2023-03-19T07:23:49.427Z,95968.69
2023-03-19T07:26:18.106Z,95986.47
2023-03-19T07:28:46.929Z,95987.94
2023-03-19T07:31:17.129Z,95993.34
2023-03-19T07:33:45.922Z,95996.41
2023-03-19T07:36:14.661Z,95988.75
2023-03-19T07:38:43.686Z,95977.41
2023-03-19T07:41:12.488Z,95970.75
2023-03-19T07:43:41.034Z,95963.69
2023-03-19T07:46:09.848Z,95963.53
2023-03-19T07:48:40.346Z,95959.84
2023-03-19T07:51:08.955Z,95946.59
2023-03-19T07:53:37.653Z,95946.31
2023-03-19T07:56:07.163Z,95954.19
2023-03-19T07:58:36.165Z,95955.75
2023-03-19T08:01:14.625Z,95958.13
2023-03-19T08:03:44.590Z,95964.47
2023-03-19T08:06:13.401Z,95958.47
2023-03-19T08:08:41.916Z,95957.47
2023-03-19T08:11:10.313Z,95965.00
2023-03-19T08:13:39.022Z,95952.91
2023-03-19T08:16:08.787Z,95964.06
2023-03-19T08:18:37.405Z,95965.56
2023-03-19T08:21:07.865Z,95964.88
2023-03-19T08:23:36.744Z,95970.22
2023-03-19T08:26:05.474Z,95971.44
2023-03-19T08:28:34.089Z,95968.09
2023-03-19T08:31:10.992Z,95971.22
2023-03-19T08:33:42.424Z,95976.84
2023-03-19T08:36:14.252Z,95978.66
2023-03-19T08:38:42.961Z,95987.78
2023-03-19T08:41:12.926Z,95993.72
2023-03-19T08:43:41.486Z,95984.94
2023-03-19T08:46:10.090Z,95985.81
2023-03-19T08:48:41.390Z,95987.03
2023-03-19T08:51:11.780Z,95988.97
2023-03-19T08:53:40.636Z,95988.75
2023-03-19T08:56:09.641Z,95991.13
2023-03-19T08:58:38.765Z,95993.69
2023-03-19T09:01:11.008Z,95996.28
2023-03-19T09:03:40.470Z,95993.84
2023-03-19T09:06:11.956Z,95985.69
2023-03-19T09:08:40.659Z,95979.97
2023-03-19T09:11:10.555Z,95988.38
2023-03-19T09:13:39.833Z,95973.91
2023-03-19T09:16:08.832Z,95983.16
2023-03-19T09:18:37.656Z,95982.66
2023-03-19T09:21:07.005Z,95988.13
2023-03-19T09:23:36.946Z,95992.25
2023-03-19T09:26:05.470Z,95998.16
2023-03-19T09:28:34.017Z,96005.28
2023-03-19T09:31:16.656Z,95993.16
2023-03-19T09:33:45.738Z,95980.47
2023-03-19T09:36:14.745Z,95989.31
2023-03-19T09:38:44.886Z,95987.59
2023-03-19T09:41:18.254Z,95978.84
2023-03-19T09:44:00.488Z,95984.69
2023-03-19T09:46:34.420Z,95989.69
2023-03-19T09:49:07.408Z,95993.91
2023-03-19T09:51:45.671Z,95995.59
2023-03-19T09:54:46.543Z,95990.63
2023-03-19T09:57:15.809Z,95989.47
2023-03-19T09:59:44.323Z,95993.06
2023-03-19T10:02:33.176Z,95980.81
2023-03-19T10:05:12.826Z,95980.53
2023-03-19T10:07:50.873Z,95980.50
2023-03-19T10:10:28.489Z,95975.09
2023-03-19T10:13:02.805Z,95966.88
2023-03-19T10:15:32.391Z,95959.31
2023-03-19T10:18:04.520Z,95964.34
2023-03-19T10:20:49.775Z,95959.66
2023-03-19T10:23:28.826Z,95962.53
2023-03-19T10:26:00.980Z,95956.44
2023-03-19T10:28:30.585Z,95962.41
2023-03-19T10:31:15.355Z,95962.41
2023-03-19T10:33:46.942Z,95974.34
2023-03-19T10:36:16.458Z,95971.66
2023-03-19T10:38:50.041Z,95971.13
2023-03-19T10:41:28.209Z,95967.50
2023-03-19T10:44:00.650Z,95961.88
2023-03-19T10:46:33.337Z,95964.72
2023-03-19T10:49:02.096Z,95968.06
2023-03-19T10:51:30.688Z,95967.75
2023-03-19T10:54:02.351Z,95966.78
2023-03-19T10:56:36.274Z,95977.59
2023-03-19T10:59:07.017Z,95970.84
2023-03-19T11:01:37.536Z,95969.75
2023-03-19T11:04:14.410Z,95963.03
2023-03-19T11:06:43.042Z,95954.94
2023-03-19T11:09:21.434Z,95955.66
2023-03-19T11:11:53.873Z,95957.84
2023-03-19T11:14:25.914Z,95966.16
2023-03-19T11:16:58.646Z,95948.38
2023-03-19T11:19:28.552Z,95945.09
2023-03-19T11:22:17.616Z,95950.81
2023-03-19T11:24:52.814Z,95942.38
2023-03-19T11:27:30.061Z,95945.78
2023-03-19T11:29:59.184Z,95948.34
2023-03-19T11:32:40.578Z,95943.44
2023-03-19T11:35:12.099Z,95935.28
2023-03-19T11:37:54.592Z,95932.41
2023-03-19T11:40:31.749Z,95934.94
2023-03-19T11:43:23.400Z,95931.00
2023-03-19T11:46:00.982Z,95917.16
2023-03-19T11:48:39.895Z,95923.50
2023-03-19T11:51:12.620Z,95913.84
2023-03-19T11:53:52.353Z,95916.34
2023-03-19T11:56:26.132Z,95920.28
2023-03-19T11:59:19.618Z,95925.28
2023-03-19T12:02:20.964Z,95920.53
2023-03-19T12:05:05.232Z,95916.53
2023-03-19T12:07:40.676Z,95913.47
2023-03-19T12:10:30.957Z,95913.78
2023-03-19T12:13:08.632Z,95919.97
2023-03-19T12:15:43.263Z,95904.03
2023-03-19T12:18:20.197Z,95907.19
2023-03-19T12:20:56.870Z,95894.75
2023-03-19T12:23:38.229Z,95896.13
2023-03-19T12:26:09.329Z,95899.63
2023-03-19T12:29:02.430Z,95902.19
2023-03-19T12:31:50.717Z,95898.56
2023-03-19T12:34:30.176Z,95891.59
2023-03-19T12:37:09.412Z,95889.09
2023-03-19T12:39:41.755Z,95894.25
2023-03-19T12:42:18.164Z,95899.47
2023-03-19T12:44:49.770Z,95900.41
2023-03-19T12:47:22.745Z,95893.50
2023-03-19T12:49:53.541Z,95891.03
2023-03-19T12:52:36.216Z,95898.50
2023-03-19T12:55:10.596Z,95899.19
2023-03-19T12:57:48.222Z,95906.25
2023-03-19T13:00:37.973Z,95905.97
2023-03-19T13:03:11.975Z,95897.16
2023-03-19T13:05:43.650Z,95902.56
2023-03-19T13:08:17.219Z,95904.56
2023-03-19T13:10:46.336Z,95907.00
2023-03-19T13:13:36.736Z,95915.47
2023-03-19T13:16:10.880Z,95909.63
2023-03-19T13:18:46.450Z,95902.09
2023-03-19T13:21:23.248Z,95897.06
2023-03-19T13:24:03.015Z,95898.72
2023-03-19T13:26:32.910Z,95888.09
2023-03-19T13:29:03.524Z,95891.28
2023-03-19T13:31:41.970Z,95883.50
2023-03-19T13:34:21.773Z,95890.47
2023-03-19T13:36:55.654Z,95888.41
2023-03-19T13:39:28.548Z,95880.38
2023-03-19T13:42:11.685Z,95882.06
2023-03-19T13:44:45.800Z,95877.78
2023-03-19T13:47:43.720Z,95877.84
2023-03-19T13:50:34.354Z,95887.06
2023-03-19T13:53:35.484Z,95880.63
2023-03-19T13:56:12.804Z,95876.09
2023-03-19T13:58:56.746Z,95877.38
2023-03-19T14:01:44.913Z,95882.72
2023-03-19T14:04:20.926Z,95878.88
2023-03-19T14:06:52.958Z,95879.31
2023-03-19T14:09:45.736Z,95870.25
2023-03-19T14:12:24.447Z,95875.31
2023-03-19T14:14:57.966Z,95879.06
2023-03-19T14:17:28.373Z,95874.44
2023-03-19T14:19:59.286Z,95868.59
2023-03-19T14:22:36.853Z,95864.16
2023-03-19T14:25:17.158Z,95864.81
2023-03-19T14:27:49.249Z,95871.28
2023-03-19T14:30:26.405Z,95870.72
2023-03-19T14:32:57.701Z,95868.44
2023-03-19T14:35:27.502Z,95878.34
2023-03-19T14:37:59.157Z,95871.28
2023-03-19T14:40:34.031Z,95865.47
2023-03-19T14:43:06.724Z,95873.09
2023-03-19T14:45:51.304Z,95870.66
2023-03-19T14:48:36.702Z,95864.91
2023-03-19T14:51:17.873Z,95869.44
2023-03-19T14:53:50.267Z,95870.00
2023-03-19T14:56:22.334Z,95869.53
2023-03-19T14:58:54.251Z,95868.31
2023-03-19T15:01:25.053Z,95874.00
2023-03-19T15:03:56.857Z,95875.53
2023-03-19T15:06:26.342Z,95878.47
2023-03-19T15:09:01.175Z,95876.53
2023-03-19T15:11:50.643Z,95877.34
2023-03-19T15:14:39.479Z,95870.59
2023-03-19T15:17:11.750Z,95875.28
2023-03-19T15:19:40.755Z,95880.09
2023-03-19T15:22:15.127Z,95879.63
2023-03-19T15:24:48.806Z,95881.75
2023-03-19T15:27:21.734Z,95890.66
2023-03-19T15:29:51.678Z,95881.94
2023-03-19T15:32:52.190Z,95884.38
2023-03-19T15:35:26.293Z,95890.81
2023-03-19T15:37:57.384Z,95888.06
2023-03-19T15:40:31.022Z,95882.38
2023-03-19T15:43:02.628Z,95891.88
2023-03-19T15:45:34.042Z,95894.13
2023-03-19T15:48:07.619Z,95895.38
2023-03-19T15:50:37.841Z,95901.97
2023-03-19T15:53:09.841Z,95904.97
2023-03-19T15:55:40.321Z,95897.19
2023-03-19T15:58:11.081Z,95898.81
2023-03-19T16:00:44.899Z,95906.72
2023-03-19T16:03:18.960Z,95910.22
2023-03-19T16:05:53.329Z,95912.44
2023-03-19T16:08:25.627Z,95903.22
2023-03-19T16:10:56.152Z,95917.34
2023-03-19T16:13:30.908Z,95911.31
2023-03-19T16:16:04.865Z,95918.44
2023-03-19T16:18:43.809Z,95919.13
2023-03-19T16:21:16.911Z,95923.56
2023-03-19T16:23:47.223Z,95930.16
2023-03-19T16:26:21.908Z,95926.19
2023-03-19T16:28:58.109Z,95931.03
2023-03-19T16:31:30.984Z,95930.97
2023-03-19T16:34:00.096Z,95935.44
2023-03-19T16:36:33.478Z,95938.78
2023-03-19T16:39:22.086Z,95951.34
2023-03-19T16:42:19.635Z,95964.28
2023-03-19T16:44:49.102Z,95957.38
2023-03-19T16:47:18.085Z,95956.13
2023-03-19T16:49:48.132Z,95956.84
2023-03-19T16:52:21.663Z,95949.81
2023-03-19T16:54:54.117Z,95947.16
2023-03-19T16:57:24.256Z,95947.16
2023-03-19T16:59:52.913Z,95957.50
2023-03-19T17:02:21.514Z,95958.59
2023-03-19T17:04:50.180Z,95964.84
2023-03-19T17:07:44.700Z,95966.91
2023-03-19T17:10:15.114Z,95967.34
2023-03-19T17:12:48.001Z,95973.28
2023-03-19T17:15:21.864Z,95972.72
2023-03-19T17:17:51.176Z,95978.53
2023-03-19T17:20:21.052Z,95981.59
2023-03-19T17:22:50.044Z,95985.75
2023-03-19T17:25:19.729Z,95982.69
2023-03-19T17:27:51.664Z,95988.31
2023-03-19T17:30:21.227Z,95993.31
2023-03-19T17:32:55.503Z,95992.91
2023-03-19T17:35:24.396Z,95990.97
2023-03-19T17:37:52.903Z,95990.94
2023-03-19T17:40:23.382Z,95988.59
2023-03-19T17:42:56.419Z,95998.97
2023-03-19T17:45:30.010Z,95988.38
2023-03-19T17:47:59.924Z,95983.75
2023-03-19T17:50:31.575Z,95998.78
2023-03-19T17:53:00.623Z,95991.66
2023-03-19T17:55:31.232Z,95998.06
2023-03-19T17:58:01.737Z,96005.09
2023-03-19T18:00:30.554Z,96008.25
2023-03-19T18:02:59.155Z,96007.88
2023-03-19T18:05:28.089Z,96006.91
2023-03-19T18:07:58.274Z,96013.44
2023-03-19T18:10:30.537Z,96014.50
2023-03-19T18:13:02.042Z,96009.25
2023-03-19T18:15:31.986Z,96012.09
2023-03-19T18:18:02.590Z,96009.78
2023-03-19T18:20:35.829Z,96014.34
2023-03-19T18:23:08.140Z,96021.31
2023-03-19T18:25:37.228Z,96017.25
2023-03-19T18:28:08.700Z,96014.94
2023-03-19T18:30:40.942Z,96019.16
2023-03-19T18:33:15.949Z,96023.97
2023-03-19T18:35:46.292Z,96027.56
2023-03-19T18:38:17.432Z,96032.13
2023-03-19T18:40:49.185Z,96027.00
2023-03-19T18:43:19.303Z,96028.31
2023-03-19T18:45:50.707Z,96037.16
2023-03-19T18:48:23.326Z,96049.28
2023-03-19T18:50:52.508Z,96043.69
2023-03-19T18:53:21.051Z,96043.00
2023-03-19T18:55:50.004Z,96043.38
2023-03-19T18:58:22.079Z,96044.66
2023-03-19T19:00:54.743Z,96047.00
2023-03-19T19:03:29.636Z,96046.53
2023-03-19T19:05:58.445Z,96049.78
2023-03-19T19:08:29.761Z,96043.63
2023-03-19T19:11:03.675Z,96045.38
2023-03-19T19:13:46.329Z,96040.59
2023-03-19T19:16:25.260Z,96049.56
2023-03-19T19:19:03.288Z,96044.66
2023-03-19T19:21:32.133Z,96050.25
2023-03-19T19:24:01.240Z,96051.06
2023-03-19T19:26:31.609Z,96049.19
2023-03-19T19:29:03.895Z,96050.34
2023-03-19T19:31:37.474Z,96046.28
2023-03-19T19:34:06.756Z,96050.00
2023-03-19T19:36:35.348Z,96052.09
2023-03-19T19:39:06.344Z,96054.53
2023-03-19T19:41:35.444Z,96061.34
2023-03-19T19:44:07.994Z,96055.09
2023-03-19T19:46:36.918Z,96061.78
2023-03-19T19:49:06.548Z,96071.84
2023-03-19T19:51:35.526Z,96066.03
2023-03-19T19:54:04.380Z,96077.81
2023-03-19T19:56:33.085Z,96077.81
2023-03-19T19:59:06.694Z,96075.34
2023-03-19T20:01:36.940Z,96073.91
2023-03-19T20:04:06.406Z,96074.38
2023-03-19T20:06:36.323Z,96078.88
2023-03-19T20:09:15.317Z,96077.34
2023-03-19T20:11:44.003Z,96080.13
2023-03-19T20:14:14.180Z,96081.16
2023-03-19T20:16:44.387Z,96081.16
2023-03-19T20:19:19.034Z,96075.31
2023-03-19T20:21:47.675Z,96084.63
2023-03-19T20:24:17.055Z,96087.19
2023-03-19T20:26:46.074Z,96071.84
2023-03-19T20:29:16.164Z,96075.66
2023-03-19T20:31:46.868Z,96081.59
2023-03-19T20:34:39.683Z,96079.94
2023-03-19T20:37:11.696Z,96075.06
2023-03-19T20:39:40.285Z,96077.97
2023-03-19T20:42:14.806Z,96082.69
2023-03-19T20:44:43.706Z,96077.09
2023-03-19T20:47:20.831Z,96078.72
2023-03-19T20:49:49.565Z,96079.66
2023-03-19T20:52:18.713Z,96074.72
2023-03-19T20:54:48.526Z,96081.50
2023-03-19T20:57:18.832Z,96077.50
2023-03-19T20:59:48.602Z,96083.75
2023-03-19T21:02:20.192Z,96085.28
2023-03-19T21:04:49.441Z,96090.16
2023-03-19T21:07:27.897Z,96096.81
2023-03-19T21:09:57.280Z,96100.09
2023-03-19T21:12:29.605Z,96101.63
2023-03-19T21:14:58.922Z,96098.44
2023-03-19T21:17:29.864Z,96097.75
2023-03-19T21:19:58.730Z,96100.19
2023-03-19T21:22:31.132Z,96096.69
2023-03-19T21:25:04.609Z,96101.56
2023-03-19T21:27:33.852Z,96101.22
2023-03-19T21:30:02.873Z,96104.41
2023-03-19T21:32:33.235Z,96098.06
2023-03-19T21:35:02.809Z,96100.28
2023-03-19T21:37:33.748Z,96099.38
2023-03-19T21:40:02.671Z,96093.66
2023-03-19T21:42:32.061Z,96101.94
2023-03-19T21:45:01.294Z,96091.56
2023-03-19T21:47:32.650Z,96098.41
2023-03-19T21:50:02.649Z,96100.13
2023-03-19T21:52:35.730Z,96101.28
2023-03-19T21:55:10.854Z,96088.09
2023-03-19T21:57:39.488Z,96100.34
2023-03-19T22:00:13.502Z,96104.84
2023-03-19T22:02:44.730Z,96105.78
2023-03-19T22:05:18.308Z,96105.97
2023-03-19T22:08:02.011Z,96108.53
2023-03-19T22:10:31.318Z,96105.19
2023-03-19T22:13:00.308Z,96104.25
2023-03-19T22:15:35.185Z,96107.22
2023-03-19T22:18:07.048Z,96101.81
2023-03-19T22:20:35.618Z,96100.31
2023-03-19T22:23:04.233Z,96108.06
2023-03-19T22:25:35.644Z,96098.56
2023-03-19T22:28:06.417Z,96102.75
2023-03-19T22:30:38.307Z,96097.53
2023-03-19T22:33:15.089Z,96101.81
2023-03-19T22:35:44.502Z,96100.53
2023-03-19T22:38:13.955Z,96095.09
2023-03-19T22:40:45.483Z,96098.78
2023-03-19T22:43:20.168Z,96097.16
2023-03-19T22:45:55.527Z,96102.25
2023-03-19T22:48:26.534Z,96098.28
2023-03-19T22:50:55.203Z,96100.03
2023-03-19T22:53:26.309Z,96105.22
2023-03-19T22:55:55.758Z,96107.50
2023-03-19T22:58:24.541Z,96107.78
2023-03-19T23:00:53.965Z,96114.53
2023-03-19T23:03:27.507Z,96111.66
2023-03-19T23:05:58.546Z,96116.97
2023-03-19T23:08:27.059Z,96116.16
2023-03-19T23:10:55.884Z,96116.53
2023-03-19T23:13:24.811Z,96123.91
2023-03-19T23:15:57.514Z,96114.28
2023-03-19T23:18:31.039Z,96115.84
2023-03-19T23:23:43.652Z,96115.84
2023-03-19T23:26:25.706Z,96116.75
2023-03-19T23:28:54.858Z,96117.97
2023-03-19T23:31:23.506Z,96114.50
2023-03-19T23:33:53.786Z,96111.22
2023-03-19T23:36:22.402Z,96115.72
2023-03-19T23:38:51.842Z,96108.00
2023-03-19T23:41:24.076Z,96098.69
2023-03-19T23:43:53.175Z,96108.28
2023-03-19T23:46:23.294Z,96109.19
2023-03-19T23:48:53.470Z,96108.59
2023-03-19T23:51:22.102Z,96106.63
2023-03-19T23:53:51.558Z,96107.25
2023-03-19T23:56:22.663Z,96110.31
2023-03-19T23:58:52.833Z,96111.13
